Time;durP1;ratioP1;P1;durP2;ratioP2;P2;SDS_P1;SDS_P2;PMS_P1;PMS_P2;Temp;Humidity;BMP_temperature;BMP_pressure;BME280_temperature;BME280_humidity;BME280_pressure;Samples;Min_cycle;Max_cycle;Signal;HPM_P1;HPM_P2
2022/04/22 00:01:27;;;;;;;9.35;6.22;;;;;;;9.59;65.13;100560.97;4757652;30;20056;-78
2022/04/22 00:03:53;;;;;;;9.80;6.75;;;;;;;9.60;64.96;100573.94;4742718;30;20051;-78
2022/04/22 00:06:20;;;;;;;9.88;6.28;;;;;;;9.50;64.76;100549.63;4739503;30;21067;-77
2022/04/22 00:08:46;;;;;;;9.27;6.60;;;;;;;9.59;64.92;100566.16;4762759;30;20079;-75
2022/04/22 00:11:30;;;;;;;11.07;6.88;;;;;;;9.54;65.11;100550.53;4763802;30;20501;-78
2022/04/22 00:13:59;;;;;;;8.93;5.90;;;;;;;9.67;64.89;100563.63;4754767;30;20081;-79
2022/04/22 00:16:27;;;;;;;10.75;6.75;;;;;;;9.53;64.87;100533.22;4763871;30;20110;-77
2022/04/22 00:18:55;;;;;;;8.88;6.50;;;;;;;9.67;65.02;100555.81;4757240;30;20059;-77
2022/04/22 00:21:21;;;;;;;9.60;6.55;;;;;;;9.61;64.93;100554.06;4752330;30;20108;-77
2022/04/22 00:23:49;;;;;;;11.98;6.90;;;;;;;9.52;64.72;100528.88;4761580;30;20051;-78
2022/04/22 00:26:18;;;;;;;9.52;6.82;;;;;;;9.67;64.96;100554.09;4732214;30;20378;-78
2022/04/22 00:28:44;;;;;;;13.15;7.35;;;;;;;9.72;64.98;100546.34;4761375;30;20094;-77
2022/04/22 00:31:10;;;;;;;11.23;7.55;;;;;;;9.64;64.80;100544.53;4746463;30;20047;-77
2022/04/22 00:33:37;;;;;;;11.57;7.32;;;;;;;9.77;64.80;100562.84;4763601;30;20142;-77
2022/04/22 00:36:03;;;;;;;10.10;6.85;;;;;;;9.75;65.00;100555.00;4728869;30;20051;-77
2022/04/22 00:38:29;;;;;;;10.32;7.40;;;;;;;9.82;65.20;100557.66;4754357;30;20047;-77
2022/04/22 00:40:56;;;;;;;10.50;7.65;;;;;;;9.77;64.75;100565.44;4763760;30;20047;-76
2022/04/22 00:43:26;;;;;;;9.50;6.97;;;;;;;9.76;65.05;100564.53;4764950;30;20058;-78
2022/04/22 00:45:54;;;;;;;11.65;7.25;;;;;;;9.72;65.12;100554.97;4751824;30;20071;-77
2022/04/22 00:48:22;;;;;;;15.60;7.57;;;;;;;9.81;65.21;100564.59;4749085;30;21130;-79
2022/04/22 00:50:48;;;;;;;10.88;7.22;;;;;;;9.80;65.06;100560.25;4762579;30;20043;-77
2022/04/22 00:53:15;;;;;;;13.18;7.40;;;;;;;9.79;65.24;100556.78;4739345;30;20048;-76
2022/04/22 00:55:43;;;;;;;11.63;7.78;;;;;;;9.72;65.44;100538.53;4762470;30;20047;-77
2022/04/22 00:58:10;;;;;;;12.77;8.00;;;;;;;9.73;65.20;100548.06;4747466;30;20052;-79
2022/04/22 01:00:37;;;;;;;11.60;8.40;;;;;;;9.74;65.37;100548.06;4766279;30;20040;-79
2022/04/22 01:03:05;;;;;;;14.13;7.80;;;;;;;9.74;65.55;100544.63;4732426;30;20104;-77
2022/04/22 01:11:03;;;;;;;12.38;7.68;;;;;;;9.77;65.35;100544.63;4763113;30;20071;-77
2022/04/22 01:13:30;;;;;;;12.82;8.30;;;;;;;9.65;65.62;100520.28;4750758;30;20047;-77
2022/04/22 01:15:56;;;;;;;12.82;8.07;;;;;;;9.74;65.27;100542.00;4766730;30;20139;-78
2022/04/22 01:18:23;;;;;;;14.20;8.40;;;;;;;9.55;65.54;100510.72;4751836;30;20121;-76
2022/04/22 01:20:48;;;;;;;13.68;8.35;;;;;;;9.73;65.68;100529.88;4754979;30;20047;-77
2022/04/22 01:23:15;;;;;;;11.88;7.70;;;;;;;9.54;65.67;100497.69;4779766;29;20027;-79
2022/04/22 01:25:41;;;;;;;13.10;8.75;;;;;;;9.75;65.49;100528.16;4764658;30;20075;-76
2022/04/22 01:28:09;;;;;;;12.82;8.55;;;;;;;9.77;65.65;100527.28;4764806;30;20043;-77
2022/04/22 01:30:35;;;;;;;14.05;8.60;;;;;;;9.80;65.76;100532.53;4759573;30;20050;-77
2022/04/22 01:33:01;;;;;;;15.82;9.30;;;;;;;9.75;66.03;100521.22;4764333;30;20055;-78
2022/04/22 01:35:27;;;;;;;14.48;8.98;;;;;;;9.84;65.77;100529.94;4766233;30;20421;-77
2022/04/22 01:37:53;;;;;;;15.95;9.25;;;;;;;9.84;65.46;100533.41;4748863;30;20149;-78
2022/04/22 01:40:19;;;;;;;13.95;9.68;;;;;;;9.63;65.32;100492.56;4765779;30;20047;-77
2022/04/22 01:42:46;;;;;;;16.48;9.00;;;;;;;9.84;65.53;100532.53;4750089;30;20138;-77
2022/04/22 01:45:12;;;;;;;17.23;9.45;;;;;;;9.77;65.05;100521.25;4750373;30;20110;-78
2022/04/22 01:47:38;;;;;;;13.90;8.85;;;;;;;9.83;65.70;100534.25;4766078;30;20528;-78
2022/04/22 01:50:06;;;;;;;13.55;9.70;;;;;;;9.82;65.13;100529.91;4765426;30;20047;-78
2022/04/22 01:52:34;;;;;;;14.80;9.15;;;;;;;9.72;65.22;100508.19;4735196;30;21098;-79
2022/04/22 01:55:00;;;;;;;13.75;8.75;;;;;;;9.79;65.48;100522.13;4764765;30;20124;-78
2022/04/22 01:57:26;;;;;;;14.68;8.90;;;;;;;9.83;65.50;100530.81;4749798;30;20055;-77
2022/04/22 01:59:51;;;;;;;15.27;9.93;;;;;;;9.81;65.19;100525.59;4765723;30;20050;-78
2022/04/22 02:02:18;;;;;;;15.82;9.07;;;;;;;9.85;65.43;100534.28;4767588;30;20066;-77
2022/04/22 02:04:45;;;;;;;16.70;10.05;;;;;;;9.82;65.39;100529.06;4752248;30;20121;-77
2022/04/22 02:07:11;;;;;;;16.17;10.25;;;;;;;9.86;65.17;100539.47;4750018;30;20051;-79
2022/04/22 02:09:37;;;;;;;15.95;10.13;;;;;;;9.79;65.35;100528.19;4727688;30;20044;-79
2022/04/22 02:12:04;;;;;;;19.00;10.82;;;;;;;9.78;65.21;100529.03;4749356;30;20101;-80
2022/04/22 02:14:31;;;;;;;18.58;10.23;;;;;;;9.69;65.37;100517.72;4750309;30;20047;-78
2022/04/22 02:16:57;;;;;;;16.05;10.30;;;;;;;9.78;65.32;100543.78;4735385;30;20051;-79
2022/04/22 02:19:23;;;;;;;15.98;9.88;;;;;;;9.69;65.15;100531.59;4749397;30;20060;-77
2022/04/22 02:21:51;;;;;;;15.93;9.65;;;;;;;9.74;65.52;100532.47;4749775;30;20052;-78
2022/04/22 02:24:17;;;;;;;14.77;9.32;;;;;;;9.65;65.41;100535.88;4751293;30;20455;-78
2022/04/22 02:29:28;;;;;;;14.77;9.60;;;;;;;9.71;65.23;100540.25;4753189;30;20156;-77
2022/04/22 02:31:54;;;;;;;14.48;8.57;;;;;;;9.48;65.37;100506.31;4763483;30;20102;-77
2022/04/22 02:34:21;;;;;;;15.18;8.95;;;;;;;9.61;65.01;100533.25;4740016;30;20138;-79
2022/04/22 02:36:47;;;;;;;16.05;8.82;;;;;;;9.60;65.28;100528.94;4770081;30;20055;-76
2022/04/22 02:39:13;;;;;;;14.93;9.02;;;;;;;9.56;65.45;100543.63;4748955;30;20134;-78
2022/04/22 02:47:10;;;;;;;12.70;8.30;;;;;;;9.39;65.68;100512.34;4764876;30;20059;-79
2022/04/22 02:49:36;;;;;;;13.90;8.65;;;;;;;9.37;65.35;100515.78;4756499;30;20055;-78
2022/04/22 02:52:02;;;;;;;11.80;8.45;;;;;;;9.55;65.48;100534.09;4762698;30;20052;-76
2022/04/22 02:54:30;;;;;;;13.00;8.52;;;;;;;9.46;65.72;100532.31;4766098;30;20327;-77
2022/04/22 02:56:57;;;;;;;12.32;7.63;;;;;;;9.52;65.40;100538.38;4772039;30;20134;-77
2022/04/22 02:59:24;;;;;;;11.82;7.85;;;;;;;9.40;65.07;100520.97;4779117;29;20023;-77
2022/04/22 03:01:50;;;;;;;15.48;7.53;;;;;;;9.42;65.40;100540.94;4784942;29;20381;-77
2022/04/22 03:04:16;;;;;;;13.73;9.10;;;;;;;9.45;65.93;100534.88;4761243;30;20102;-78
2022/04/22 03:06:43;;;;;;;13.15;8.43;;;;;;;9.52;65.87;100528.88;4758632;30;20047;-77
2022/04/22 03:09:09;;;;;;;17.55;9.98;;;;;;;9.59;65.55;100542.78;4767094;30;20487;-76
2022/04/22 03:11:35;;;;;;;16.92;9.48;;;;;;;9.49;65.44;100524.50;4771013;30;20151;-78
2022/04/22 03:14:05;;;;;;;15.90;9.52;;;;;;;9.57;65.27;100537.59;4764873;30;20051;-78
2022/04/22 03:16:32;;;;;;;18.00;8.90;;;;;;;9.58;65.00;100538.44;4765141;30;20393;-78
2022/04/22 03:18:59;;;;;;;15.20;8.80;;;;;;;9.68;65.02;100549.75;4767406;30;20503;-78
2022/04/22 03:21:26;;;;;;;14.18;8.05;;;;;;;9.69;65.46;100546.31;4768708;30;20047;-80
2022/04/22 03:23:52;;;;;;;14.95;8.50;;;;;;;9.70;65.20;100540.25;4751725;30;20082;-76
2022/04/22 03:26:18;;;;;;;14.98;8.23;;;;;;;9.83;65.40;100549.84;4765409;30;20051;-77
2022/04/22 03:28:46;;;;;;;13.25;7.85;;;;;;;9.76;65.40;100556.75;4748056;30;20071;-78
2022/04/22 03:31:13;;;;;;;11.77;7.40;;;;;;;9.68;65.51;100534.16;4748349;30;20052;-76
2022/04/22 03:33:39;;;;;;;13.25;7.40;;;;;;;9.64;65.02;100533.28;4762476;30;20130;-78
2022/04/22 03:36:05;;;;;;;13.20;8.43;;;;;;;9.69;64.78;100557.59;4748099;30;20048;-79
2022/04/22 03:38:31;;;;;;;12.77;8.20;;;;;;;9.75;65.36;100554.16;4742469;30;20044;-78
2022/04/22 03:40:57;;;;;;;8.60;6.65;;;;;;;9.79;65.11;100548.13;4740027;30;20142;-78
2022/04/22 03:43:25;;;;;;;12.32;6.47;;;;;;;9.90;65.38;100555.97;4748988;30;20055;-77
2022/04/22 03:45:54;;;;;;;10.82;6.20;;;;;;;9.83;65.25;100533.41;4755214;30;20047;-79
2022/04/22 03:48:21;;;;;;;14.52;7.70;;;;;;;9.78;65.23;100518.63;4748623;30;20058;-78
2022/04/22 03:50:47;;;;;;;11.98;7.35;;;;;;;10.02;64.86;100556.03;4764749;30;20047;-76
2022/04/22 03:53:13;;;;;;;11.55;7.32;;;;;;;9.95;65.01;100536.94;4750183;30;20055;-77
2022/04/22 03:55:41;;;;;;;16.42;9.27;;;;;;;10.07;65.17;100556.94;4766791;30;20051;-78
2022/04/22 03:58:11;;;;;;;18.55;10.38;;;;;;;10.00;64.67;100538.69;4765407;30;20043;-78
2022/04/22 04:00:46;;;;;;;17.85;9.85;;;;;;;10.00;64.61;100562.09;4757683;30;20511;-76
2022/04/22 04:03:14;;;;;;;12.80;7.78;;;;;;;9.79;64.07;100554.16;4748622;30;20525;-79
2022/04/22 04:05:41;;;;;;;15.82;8.02;;;;;;;9.75;64.96;100564.53;4749265;30;20047;-77
2022/04/22 04:08:11;;;;;;;13.60;8.43;;;;;;;9.62;65.11;100555.78;4766325;30;20075;-76
2022/04/22 04:16:06;;;;;;;15.07;8.82;;;;;;;9.51;64.95;100550.53;4766428;30;20472;-77
2022/04/22 04:18:34;;;;;;;12.45;7.85;;;;;;;9.34;64.46;100561.66;4755627;30;20074;-79
2022/04/22 04:23:47;;;;;;;15.23;8.35;;;;;;;9.39;65.85;100553.91;4767053;30;20107;-77
2022/04/22 04:26:15;;;;;;;12.48;7.68;;;;;;;9.37;66.03;100519.25;4783940;30;20048;-78
2022/04/22 04:28:43;;;;;;;15.10;8.45;;;;;;;9.75;65.53;100554.16;4753519;30;20532;-77
2022/04/22 04:31:11;;;;;;;15.85;9.50;;;;;;;9.79;65.30;100555.91;4769988;30;20082;-78
2022/04/22 04:33:37;;;;;;;12.45;8.15;;;;;;;9.75;65.31;100520.38;4751423;30;20044;-78
2022/04/22 04:36:05;;;;;;;16.25;8.32;;;;;;;10.01;65.26;100549.09;4761743;30;20077;-77
2022/04/22 04:38:32;;;;;;;13.05;8.50;;;;;;;10.05;64.90;100537.84;4777592;30;20035;-79
2022/04/22 04:40:59;;;;;;;13.32;8.60;;;;;;;10.14;64.51;100550.03;4767913;30;20055;-77
2022/04/22 04:43:27;;;;;;;13.05;8.43;;;;;;;10.13;64.73;100537.03;4736559;30;20509;-78
2022/04/22 04:45:54;;;;;;;14.05;8.27;;;;;;;10.07;63.32;100538.75;4741975;30;20106;-77
2022/04/22 04:48:20;;;;;;;15.07;8.13;;;;;;;10.05;63.22;100552.56;4740993;30;20036;-77
2022/04/22 04:50:46;;;;;;;12.55;9.20;;;;;;;10.03;64.43;100542.19;4763759;30;20107;-78
2022/04/22 04:53:13;;;;;;;16.50;8.80;;;;;;;10.27;64.20;100547.47;4763451;30;20043;-76
2022/04/22 04:55:40;;;;;;;14.18;8.35;;;;;;;10.18;63.67;100527.50;4762740;30;20100;-78
2022/04/22 04:58:06;;;;;;;14.95;8.23;;;;;;;10.11;63.97;100516.22;4763272;30;20493;-76
2022/04/22 05:00:33;;;;;;;12.02;7.30;;;;;;;10.41;64.05;100538.03;4764006;30;20404;-78
2022/04/22 05:03:00;;;;;;;11.75;7.40;;;;;;;10.43;64.17;100497.28;4762080;30;20051;-78
2022/04/22 05:05:26;;;;;;;15.02;8.20;;;;;;;10.77;63.31;100541.59;4747604;30;20055;-77
2022/04/22 05:07:56;;;;;;;14.35;8.10;;;;;;;10.73;62.95;100534.66;4763230;30;20091;-77
2022/04/22 05:10:22;;;;;;;11.98;8.20;;;;;;;10.90;62.72;100524.28;4762336;30;20085;-77
2022/04/22 05:12:49;;;;;;;13.75;9.45;;;;;;;11.15;62.62;100539.94;4762994;30;20624;-78
2022/04/22 05:15:17;;;;;;;14.20;8.30;;;;;;;11.02;61.93;100510.41;4759647;30;20048;-78
2022/04/22 05:17:45;;;;;;;11.27;8.15;;;;;;;11.36;61.68;100546.00;4751991;30;20065;-75
2022/04/22 05:20:12;;;;;;;10.77;7.55;;;;;;;11.48;61.60;100538.16;4753271;30;20512;-79
2022/04/22 05:22:39;;;;;;;13.40;7.80;;;;;;;11.56;61.56;100539.03;4747632;30;20513;-78
2022/04/22 05:25:07;;;;;;;15.80;7.57;;;;;;;11.69;61.43;100531.22;4746969;30;20059;-80
2022/04/22 05:27:34;;;;;;;11.40;7.35;;;;;;;11.75;61.03;100519.03;4763795;30;20527;-77
2022/04/22 05:32:47;;;;;;;9.82;6.50;;;;;;;12.16;60.31;100532.84;4763690;30;20051;-79
2022/04/22 05:35:16;;;;;;;8.00;5.95;;;;;;;12.22;59.69;100503.28;4750033;30;20075;-79
2022/04/22 05:37:47;;;;;;;7.47;5.57;;;;;;;12.49;58.86;100528.34;4768950;30;20059;-82
2022/04/22 05:40:15;;;;;;;7.70;6.28;;;;;;;12.52;58.50;100532.69;4751845;30;20047;-81
2022/04/22 05:42:41;;;;;;;9.55;6.45;;;;;;;12.05;57.63;100452.00;4764202;30;20055;-80
2022/04/22 05:45:10;;;;;;;13.60;6.25;;;;;;;12.56;58.17;100521.34;4763440;30;20048;-83
2022/04/22 05:47:36;;;;;;;13.80;8.10;;;;;;;12.44;58.20;100479.66;4745821;30;20119;-80
2022/04/22 05:50:05;;;;;;;13.15;7.50;;;;;;;12.60;57.51;100510.03;4763988;30;20142;-80
2022/04/22 05:52:33;;;;;;;9.00;5.88;;;;;;;12.72;57.42;100508.19;4766892;30;20054;-80
2022/04/22 05:55:02;;;;;;;9.73;5.57;;;;;;;13.07;57.04;100525.38;4766349;30;20385;-80
2022/04/22 05:57:36;;;;;;;9.15;5.78;;;;;;;13.35;56.96;100526.03;4767808;30;20066;-80
2022/04/22 06:00:08;;;;;;;9.75;5.53;;;;;;;13.40;54.93;100525.97;4750407;30;20144;-81
2022/04/22 06:02:43;;;;;;;7.43;4.28;;;;;;;13.47;53.98;100532.03;4751389;30;20051;-80
2022/04/22 06:05:14;;;;;;;6.55;4.63;;;;;;;13.42;55.84;100534.69;4737138;30;20081;-82
2022/04/22 06:10:46;;;;;;;7.25;3.70;;;;;;;13.77;54.94;100512.59;4750245;30;20107;-80
2022/04/22 06:13:12;;;;;;;8.07;4.45;;;;;;;13.72;53.58;100506.53;4753397;30;20044;-80
2022/04/22 06:15:42;;;;;;;4.72;3.60;;;;;;;13.65;54.07;100533.63;4763983;30;20052;-81
2022/04/22 06:18:08;;;;;;;7.28;4.35;;;;;;;13.52;53.61;100506.72;4783812;30;20071;-84
2022/04/22 06:20:44;;;;;;;5.72;3.95;;;;;;;13.75;53.89;100527.44;4758120;30;20044;-83
2022/04/22 06:23:18;;;;;;;8.57;4.47;;;;;;;13.77;52.56;100530.91;4738511;30;20051;-84
2022/04/22 06:25:48;;;;;;;8.90;4.25;;;;;;;12.88;53.62;100438.44;4742568;30;20451;-83
2022/04/22 06:28:14;;;;;;;9.20;4.68;;;;;;;13.15;53.29;100466.06;4752525;30;20055;-81
2022/04/22 06:30:46;;;;;;;5.97;4.40;;;;;;;13.70;53.39;100539.69;4745123;30;21004;-82
2022/04/22 06:33:12;;;;;;;7.68;4.47;;;;;;;13.76;53.21;100530.88;4750837;30;20056;-79
2022/04/22 06:35:39;;;;;;;9.85;5.00;;;;;;;13.80;53.11;100523.00;4748382;30;20044;-79
2022/04/22 06:38:14;;;;;;;10.65;4.68;;;;;;;13.78;52.55;100506.47;4759334;30;20039;-81
2022/04/22 06:46:12;;;;;;;6.53;3.53;;;;;;;13.39;50.49;100505.94;4766951;30;20501;-79
2022/04/22 06:48:39;;;;;;;4.93;4.20;;;;;;;13.10;52.84;100521.00;4737003;30;20074;-81
2022/04/22 06:51:07;;;;;;;6.75;3.90;;;;;;;13.19;53.37;100498.28;4736606;30;20047;-80
2022/04/22 06:53:34;;;;;;;4.25;3.67;;;;;;;13.55;53.06;100527.63;4736155;30;20083;-81
2022/04/22 06:56:06;;;;;;;7.75;4.55;;;;;;;13.67;52.50;100530.13;4748565;30;20154;-82
2022/04/22 06:58:41;;;;;;;5.45;3.97;;;;;;;13.38;52.15;100483.28;4766108;30;20046;-80
2022/04/22 07:01:11;;;;;;;5.85;3.55;;;;;;;13.51;52.34;100511.09;4766019;30;20151;-81
2022/04/22 07:03:41;;;;;;;5.78;3.67;;;;;;;13.61;52.21;100530.19;4755808;30;20044;-82
2022/04/22 07:06:08;;;;;;;7.63;4.07;;;;;;;13.63;52.22;100504.88;4765992;30;20051;-81
2022/04/22 07:08:35;;;;;;;6.72;3.80;;;;;;;13.66;52.16;100504.84;4748634;30;20040;-80
2022/04/22 07:11:03;;;;;;;6.20;3.90;;;;;;;13.86;52.14;100512.47;4749905;30;20043;-81
2022/04/22 07:13:29;;;;;;;6.25;3.83;;;;;;;13.66;51.63;100483.06;4749372;30;20509;-77
2022/04/22 07:15:59;;;;;;;8.63;3.65;;;;;;;13.92;51.47;100514.13;4749599;30;20051;-78
2022/04/22 07:18:25;;;;;;;6.38;3.58;;;;;;;13.76;51.73;100479.47;4748989;30;20063;-77
2022/04/22 07:20:52;;;;;;;4.95;3.80;;;;;;;13.64;51.28;100485.69;4751372;30;20055;-77
2022/04/22 07:23:18;;;;;;;5.88;3.53;;;;;;;13.72;51.49;100498.69;4737755;30;20048;-79
2022/04/22 07:25:47;;;;;;;4.28;3.65;;;;;;;13.64;51.54;100466.50;4759885;30;20087;-80
2022/04/22 07:28:40;;;;;;;5.53;3.67;;;;;;;13.97;51.35;100525.44;4756838;30;20046;-79
2022/04/22 07:31:22;;;;;;;4.70;3.80;;;;;;;13.20;50.57;100417.25;4746501;30;20052;-79
2022/04/22 07:34:41;;;;;;;4.25;3.22;;;;;;;13.27;51.12;100457.25;4742383;30;20055;-85
2022/04/22 07:37:09;;;;;;;4.47;3.20;;;;;;;13.39;50.90;100532.97;4736760;30;20154;-81
2022/04/22 07:39:39;;;;;;;5.78;3.70;;;;;;;13.25;51.90;100499.09;4748858;30;20124;-81
2022/04/22 07:42:14;;;;;;;4.97;3.60;;;;;;;13.32;51.37;100517.34;4745974;30;20087;-80
2022/04/22 07:47:58;;;;;;;4.75;3.70;;;;;;;12.81;51.58;100351.47;4760954;30;20536;-78
2022/04/22 07:50:27;;;;;;;4.57;3.30;;;;;;;13.75;51.38;100529.16;4748660;30;20439;-81
2022/04/22 07:52:53;;;;;;;7.40;3.40;;;;;;;13.67;50.96;100496.13;4760803;30;20060;-80
2022/04/22 07:55:19;;;;;;;4.13;2.88;;;;;;;13.74;50.96;100486.47;4754317;30;20047;-81
2022/04/22 07:57:46;;;;;;;6.15;4.35;;;;;;;13.89;51.03;100505.47;4739490;30;20074;-80
2022/04/22 08:00:13;;;;;;;7.85;3.75;;;;;;;13.90;50.88;100486.28;4755897;30;20051;-79
2022/04/22 08:02:42;;;;;;;6.40;3.47;;;;;;;14.01;50.75;100490.50;4741474;30;20052;-80
2022/04/22 08:05:11;;;;;;;10.10;3.40;;;;;;;14.24;50.43;100499.81;4734962;30;20052;-78
2022/04/22 08:07:38;;;;;;;6.65;3.65;;;;;;;14.10;49.84;100447.66;4733369;30;20056;-81
2022/04/22 08:10:06;;;;;;;4.63;3.60;;;;;;;14.14;49.89;100458.94;4746235;30;20048;-81
2022/04/22 08:12:33;;;;;;;6.28;4.18;;;;;;;14.33;50.33;100493.59;4746470;30;20059;-79
2022/04/22 08:15:03;;;;;;;7.68;3.58;;;;;;;14.16;49.55;100478.97;4745090;30;20138;-78
2022/04/22 08:17:37;;;;;;;4.32;3.25;;;;;;;13.79;49.76;100481.16;4748849;30;20059;-80
2022/04/22 08:20:07;;;;;;;4.90;3.38;;;;;;;14.18;50.57;100485.94;4741435;30;20071;-80
2022/04/22 08:22:36;;;;;;;12.18;6.15;;;;;;;14.46;50.06;100474.19;4757589;30;20051;-80
2022/04/22 08:25:04;;;;;;;6.18;2.95;;;;;;;14.42;49.58;100475.16;4745425;30;20086;-79
2022/04/22 08:27:46;;;;;;;5.78;3.10;;;;;;;14.51;49.07;100468.03;4764356;30;20508;-79
2022/04/22 08:30:31;;;;;;;3.70;3.10;;;;;;;14.58;49.13;100452.19;4735663;30;20060;-80
2022/04/22 08:33:01;;;;;;;6.50;3.22;;;;;;;14.62;48.66;100447.81;4749043;30;20535;-79
2022/04/22 08:35:29;;;;;;;7.40;3.28;;;;;;;14.54;47.52;100460.13;4764806;30;20055;-80
2022/04/22 08:37:55;;;;;;;5.72;3.30;;;;;;;14.34;48.57;100466.53;4754655;30;20043;-79
2022/04/22 08:40:21;;;;;;;7.05;3.63;;;;;;;14.50;48.20;100480.28;4741535;30;20051;-82
2022/04/22 08:42:49;;;;;;;5.70;3.90;;;;;;;14.33;48.65;100464.78;4745599;30;20127;-82
2022/04/22 08:45:16;;;;;;;5.07;3.40;;;;;;;14.36;48.72;100471.72;4749434;30;20109;-82
2022/04/22 08:50:29;;;;;;;10.63;4.22;;;;;;;14.07;48.71;100463.38;4764682;30;20060;-81
2022/04/22 08:53:08;;;;;;;6.75;3.03;;;;;;;14.00;48.71;100393.72;4765060;30;20194;-83
2022/04/22 08:55:36;;;;;;;5.63;3.10;;;;;;;14.75;48.93;100478.19;4756063;30;20058;-81
2022/04/22 08:58:05;;;;;;;6.40;3.58;;;;;;;14.51;48.21;100373.75;4746954;30;20044;-81
2022/04/22 09:00:37;;;;;;;6.70;3.85;;;;;;;15.02;48.03;100425.34;4764875;30;20474;-83
2022/04/22 09:03:03;;;;;;;5.60;3.50;;;;;;;15.34;47.71;100444.88;4764133;30;20043;-79
2022/04/22 09:05:31;;;;;;;5.10;3.55;;;;;;;15.53;47.43;100453.28;4764703;30;20048;-80
2022/04/22 09:08:00;;;;;;;5.95;3.95;;;;;;;15.49;47.01;100418.34;4767231;30;20547;-81
2022/04/22 09:10:26;;;;;;;5.95;3.95;;;;;;;15.76;46.72;100428.34;4737606;30;20044;-81
2022/04/22 09:12:55;;;;;;;7.68;3.50;;;;;;;15.69;46.47;100439.84;4748399;30;20465;-81
2022/04/22 09:15:23;;;;;;;5.03;3.15;;;;;;;15.54;46.70;100410.44;4764092;30;20578;-81
2022/04/22 09:17:57;;;;;;;5.53;3.28;;;;;;;15.72;46.32;100416.19;4763243;30;20066;-82
2022/04/22 09:20:46;;;;;;;5.40;3.17;;;;;;;15.86;46.38;100443.03;4746890;30;20051;-85
2022/04/22 09:23:33;;;;;;;6.18;3.35;;;;;;;16.05;46.40;100443.53;4765428;30;20113;-83
2022/04/22 09:26:00;;;;;;;6.80;3.30;;;;;;;15.81;45.89;100393.25;4772029;30;20047;-81
2022/04/22 09:28:26;;;;;;;4.40;3.40;;;;;;;16.07;45.92;100451.34;4761857;30;20078;-79
2022/04/22 09:31:01;;;;;;;5.40;3.47;;;;;;;16.20;45.66;100421.31;4767900;30;20080;-81
2022/04/22 09:33:35;;;;;;;5.97;3.70;;;;;;;16.35;45.46;100420.09;4765749;30;20087;-80
2022/04/22 09:44:24;;;;;;;7.25;3.17;;;;;;;17.13;44.37;100428.75;4766151;30;20082;-78
2022/04/22 09:47:11;;;;;;;7.60;3.20;;;;;;;17.37;43.93;100406.19;4766980;30;20462;-78
2022/04/22 09:49:45;;;;;;;5.63;3.20;;;;;;;17.72;43.42;100408.75;4758298;30;20044;-78
2022/04/22 09:52:12;;;;;;;5.45;3.28;;;;;;;17.76;43.07;100415.66;4743704;30;20054;-81
2022/04/22 09:54:38;;;;;;;6.13;2.97;;;;;;;18.18;43.05;100396.03;4728855;30;20055;-83
2022/04/22 09:57:05;;;;;;;7.53;2.70;;;;;;;18.81;42.27;100388.69;4735350;30;20052;-82
2022/04/22 09:59:33;;;;;;;4.75;3.10;;;;;;;19.89;41.17;100401.63;4766903;30;20036;-79
2022/04/22 10:02:04;;;;;;;7.35;3.00;;;;;;;20.09;39.70;100387.66;4767360;30;20063;-83
2022/04/22 10:04:31;;;;;;;5.32;2.97;;;;;;;20.04;39.56;100396.69;4750746;30;20067;-81
2022/04/22 10:07:00;;;;;;;4.93;2.95;;;;;;;19.98;39.66;100403.94;4759246;30;20055;-81
2022/04/22 10:09:28;;;;;;;7.95;2.92;;;;;;;19.62;39.10;100377.13;4749995;30;20222;-81
2022/04/22 10:11:57;;;;;;;10.40;3.25;;;;;;;19.44;39.37;100411.19;4750148;30;20069;-78
2022/04/22 10:14:38;;;;;;;7.55;3.53;;;;;;;18.96;39.04;100403.16;4736657;30;20051;-78
2022/04/22 10:17:05;;;;;;;3.90;2.97;;;;;;;18.59;39.74;100406.13;4765930;30;20047;-83
2022/04/22 10:19:35;;;;;;;4.90;3.47;;;;;;;18.22;39.99;100373.91;4750739;30;20056;-81
2022/04/22 10:22:02;;;;;;;6.72;3.60;;;;;;;18.14;40.15;100392.59;4749739;30;20060;-80
2022/04/22 10:24:49;;;;;;;4.53;3.03;;;;;;;17.71;40.36;100357.00;4767019;30;20078;-81
2022/04/22 10:27:35;;;;;;;7.80;3.78;;;;;;;17.24;41.09;100339.91;4753767;30;20102;-82
2022/04/22 10:30:01;;;;;;;6.75;3.33;;;;;;;17.31;40.68;100370.41;4771695;30;20050;-82
2022/04/22 10:32:33;;;;;;;3.88;2.90;;;;;;;17.31;41.54;100387.97;4751004;30;20224;-79
2022/04/22 10:35:03;;;;;;;7.03;2.80;;;;;;;17.25;40.66;100378.47;4736898;30;20457;-83
2022/04/22 10:37:31;;;;;;;4.95;2.72;;;;;;;17.42;41.22;100409.56;4767674;30;20302;-80
2022/04/22 10:39:58;;;;;;;5.13;3.20;;;;;;;17.49;41.41;100380.47;4760414;30;20071;-82
2022/04/22 10:42:36;;;;;;;7.07;2.72;;;;;;;17.45;40.45;100387.56;4773162;30;20088;-80
2022/04/22 10:47:51;;;;;;;4.55;3.15;;;;;;;17.99;40.00;100393.94;4772335;30;20044;-79
2022/04/22 10:50:27;;;;;;;4.93;3.05;;;;;;;18.16;40.35;100395.19;4778225;30;20047;-82
2022/04/22 10:53:04;;;;;;;5.47;3.10;;;;;;;17.96;38.66;100382.59;4772987;30;20081;-80
2022/04/22 10:55:38;;;;;;;4.97;2.97;;;;;;;17.32;40.12;100347.63;4776035;30;20111;-81
2022/04/22 10:58:14;;;;;;;6.50;3.50;;;;;;;17.29;39.76;100397.69;4738822;30;20039;-79
2022/04/22 11:00:43;;;;;;;6.40;3.28;;;;;;;17.05;40.29;100396.53;4758730;30;20054;-85
2022/04/22 11:03:19;;;;;;;4.55;3.25;;;;;;;16.50;40.79;100341.84;4759338;30;20058;-81
2022/04/22 11:05:49;;;;;;;5.88;3.33;;;;;;;16.56;40.77;100394.22;4758226;30;20054;-81
2022/04/22 11:08:18;;;;;;;5.53;3.47;;;;;;;16.41;41.38;100395.47;4771140;29;20039;-81
2022/04/22 11:10:44;;;;;;;5.88;3.20;;;;;;;16.31;41.49;100383.44;4784845;29;20052;-80
2022/04/22 11:13:26;;;;;;;6.15;3.10;;;;;;;16.43;41.20;100391.06;4772354;30;20146;-79
2022/04/22 11:15:56;;;;;;;7.57;3.60;;;;;;;16.31;41.01;100378.19;4774756;30;20050;-81
2022/04/22 11:18:22;;;;;;;6.32;3.40;;;;;;;16.20;41.28;100384.56;4757878;30;20059;-85
2022/04/22 11:21:04;;;;;;;5.55;3.00;;;;;;;16.01;41.67;100372.72;4753826;30;20075;-82
2022/04/22 11:23:35;;;;;;;6.25;3.17;;;;;;;15.94;41.45;100378.13;4773564;30;20059;-81
2022/04/22 11:26:02;;;;;;;8.70;3.63;;;;;;;15.98;42.46;100383.31;4757930;30;20058;-79
2022/04/22 11:28:33;;;;;;;7.65;3.00;;;;;;;15.65;42.20;100363.84;4755842;30;20039;-81
2022/04/22 11:31:04;;;;;;;4.53;2.63;;;;;;;15.42;41.65;100360.81;4776284;30;20128;-79
2022/04/22 11:33:43;;;;;;;6.82;2.90;;;;;;;15.39;42.84;100353.00;4773838;30;20054;-79
2022/04/22 11:36:10;;;;;;;6.20;3.10;;;;;;;15.81;42.97;100366.13;4775723;30;20050;-82
2022/04/22 11:38:45;;;;;;;7.45;3.22;;;;;;;15.98;42.60;100346.59;4752633;30;20048;-83
2022/04/22 11:41:13;;;;;;;5.20;3.15;;;;;;;16.32;42.56;100351.91;4770270;30;20035;-83
2022/04/22 11:43:39;;;;;;;4.05;3.10;;;;;;;16.49;42.10;100335.72;4757232;30;20059;-80
2022/04/22 11:46:05;;;;;;;4.57;3.20;;;;;;;17.04;41.53;100364.16;4779488;30;20142;-82
2022/04/22 11:48:31;;;;;;;7.13;3.40;;;;;;;17.48;41.36;100355.91;4764585;30;20094;-79
2022/04/22 11:51:00;;;;;;;7.03;2.92;;;;;;;17.65;40.18;100331.75;4760168;30;20611;-79
2022/04/22 11:53:31;;;;;;;5.50;3.72;;;;;;;17.70;39.78;100343.00;4751483;30;20103;-82
2022/04/22 11:55:58;;;;;;;7.60;3.90;;;;;;;17.60;40.31;100300.31;4738630;30;20065;-79
2022/04/22 11:58:24;;;;;;;7.85;3.60;;;;;;;17.81;39.76;100324.25;4749603;30;20790;-82
2022/04/22 12:06:22;;;;;;;6.88;3.90;;;;;;;17.20;40.15;100319.91;4763664;30;20047;-81
2022/04/22 12:09:02;;;;;;;5.00;3.60;;;;;;;17.38;40.30;100296.59;4749263;30;20047;-83
2022/04/22 12:11:28;;;;;;;4.63;3.72;;;;;;;17.77;39.90;100314.72;4745406;30;20059;-80
2022/04/22 12:13:55;;;;;;;9.05;4.15;;;;;;;17.84;39.46;100299.59;4750663;30;20097;-81
2022/04/22 12:16:24;;;;;;;6.65;3.60;;;;;;;17.87;39.24;100317.94;4749515;30;20053;-81
2022/04/22 12:18:53;;;;;;;8.13;4.00;;;;;;;17.75;39.02;100322.69;4765335;30;20111;-80
2022/04/22 12:21:21;;;;;;;5.60;3.85;;;;;;;17.61;39.53;100315.19;4763874;30;20047;-82
2022/04/22 12:23:57;;;;;;;8.00;4.13;;;;;;;17.38;39.60;100318.50;4748316;30;20098;-80
2022/04/22 12:26:25;;;;;;;8.35;4.25;;;;;;;16.96;38.64;100327.56;4763614;30;20047;-82
2022/04/22 12:29:12;;;;;;;8.43;3.72;;;;;;;16.68;40.20;100328.25;4745082;30;20532;-84